Time;durP1;ratioP1;P1;durP2;ratioP2;P2;SDS_P1;SDS_P2;PMS_P1;PMS_P2;Temp;Humidity;BMP_temperature;BMP_pressure;BME280_temperature;BME280_humidity;BME280_pressure;Samples;Min_cycle;Max_cycle;Signal;HPM_P1;HPM_P2
2022/08/08 00:00:03;;;;;;;0.98;0.88;;;22.30;62.90;;;;;;6152528;23;43292;-63
2022/08/08 00:02:57;;;;;;;0.80;0.80;;;22.30;62.90;;;;;;6152263;23;44707;-63
2022/08/08 00:05:35;;;;;;;1.00;1.00;;;22.30;62.90;;;;;;6152341;23;43881;-63
2022/08/08 00:08:49;;;;;;;1.10;1.00;;;22.30;62.90;;;;;;6151807;23;43298;-63
2022/08/08 00:11:27;;;;;;;1.15;1.05;;;22.30;62.90;;;;;;6152375;23;43212;-63
2022/08/08 00:14:33;;;;;;;1.15;0.98;;;22.20;62.80;;;;;;6151652;23;43736;-63
2022/08/08 00:17:41;;;;;;;1.05;1.00;;;22.20;62.80;;;;;;6152063;23;43645;-63
2022/08/08 00:20:46;;;;;;;1.10;1.10;;;22.20;62.90;;;;;;6151831;23;43325;-63
2022/08/08 00:23:25;;;;;;;1.23;1.08;;;22.20;62.90;;;;;;6152254;23;43381;-63
2022/08/08 00:26:09;;;;;;;0.95;0.90;;;22.20;62.90;;;;;;6152072;23;43987;-63
2022/08/08 00:28:47;;;;;;;1.02;1.02;;;22.20;62.90;;;;;;6175276;22;43651;-63
2022/08/08 00:31:20;;;;;;;1.27;1.17;;;22.10;62.90;;;;;;6212248;22;43313;-63
2022/08/08 00:37:13;;;;;;;1.05;1.05;;;22.10;62.90;;;;;;6212246;22;44924;-63
2022/08/08 00:40:22;;;;;;;1.20;1.10;;;22.10;62.90;;;;;;6212455;22;43261;-63
2022/08/08 00:43:24;;;;;;;1.15;1.10;;;22.10;62.90;;;;;;6212143;22;43253;-64
2022/08/08 00:46:33;;;;;;;1.33;1.23;;;22.10;63.00;;;;;;6212156;22;43941;-63
2022/08/08 00:49:36;;;;;;;1.70;1.20;;;22.10;63.00;;;;;;6184802;22;43894;-63
2022/08/08 00:52:29;;;;;;;0.82;0.82;;;22.10;63.00;;;;;;6185293;22;43230;-63
2022/08/08 00:55:19;;;;;;;1.25;1.15;;;22.10;63.00;;;;;;6185929;22;43232;-63
2022/08/08 00:58:35;;;;;;;1.20;1.10;;;22.10;63.00;;;;;;6185840;22;43280;-64
2022/08/08 01:01:54;;;;;;;1.42;1.00;;;22.00;63.00;;;;;;6211194;22;44951;-64
2022/08/08 01:05:01;;;;;;;1.42;1.08;;;22.00;63.00;;;;;;6184044;22;43305;-63
2022/08/08 01:07:50;;;;;;;1.35;1.25;;;22.00;63.00;;;;;;6185658;22;43874;-63
2022/08/08 01:11:19;;;;;;;1.13;0.90;;;22.00;63.10;;;;;;6210365;22;43381;-63
2022/08/08 01:14:27;;;;;;;1.65;1.20;;;22.00;63.10;;;;;;6185419;22;44011;-63
2022/08/08 01:17:18;;;;;;;0.90;0.90;;;22.00;63.10;;;;;;6184693;22;43657;-63
2022/08/08 01:20:21;;;;;;;0.95;0.95;;;22.00;63.10;;;;;;6185749;22;43308;-63
2022/08/08 01:23:28;;;;;;;1.20;1.10;;;22.00;63.10;;;;;;6185901;22;43360;-63
2022/08/08 01:26:45;;;;;;;1.15;1.08;;;22.00;63.10;;;;;;6211333;22;43936;-63
2022/08/08 01:29:20;;;;;;;1.10;1.00;;;22.00;63.10;;;;;;6185084;22;43787;-63
2022/08/08 01:32:11;;;;;;;0.98;0.98;;;22.00;63.20;;;;;;6210433;22;43253;-63
2022/08/08 01:34:46;;;;;;;1.20;1.10;;;22.00;63.10;;;;;;6185216;22;43376;-63
2022/08/08 01:37:39;;;;;;;1.13;1.13;;;22.00;63.10;;;;;;6183371;22;44080;-63
2022/08/08 01:40:49;;;;;;;1.02;1.02;;;21.90;63.10;;;;;;6184810;22;43305;-63
2022/08/08 01:43:27;;;;;;;1.23;1.00;;;21.90;63.10;;;;;;6185078;22;43302;-63
2022/08/08 01:46:20;;;;;;;0.93;0.93;;;21.90;63.10;;;;;;6210119;22;43365;-63
2022/08/08 01:49:05;;;;;;;1.05;1.05;;;21.90;63.10;;;;;;6185091;22;43939;-63
2022/08/08 01:52:01;;;;;;;1.45;1.35;;;21.90;63.10;;;;;;6210215;22;43835;-63
2022/08/08 01:54:51;;;;;;;0.98;0.98;;;21.90;63.10;;;;;;6186470;22;43225;-63
2022/08/08 01:58:39;;;;;;;1.40;1.30;;;21.90;63.20;;;;;;6211891;22;43396;-63
2022/08/08 02:01:44;;;;;;;1.10;1.10;;;21.90;63.10;;;;;;6097449;22;45617;-63
2022/08/08 02:04:51;;;;;;;1.45;1.30;;;21.90;63.20;;;;;;6186219;22;43721;-63
2022/08/08 02:07:53;;;;;;;1.10;1.10;;;21.90;63.20;;;;;;6185689;22;43270;-63
2022/08/08 02:11:00;;;;;;;1.13;1.02;;;21.90;63.20;;;;;;6185887;22;43412;-63
2022/08/08 02:13:54;;;;;;;0.90;0.90;;;21.90;63.20;;;;;;6185904;22;43828;-64
2022/08/08 02:16:43;;;;;;;0.90;0.90;;;21.90;63.20;;;;;;6200167;22;43869;-63
2022/08/08 02:19:16;;;;;;;0.90;0.90;;;21.80;63.20;;;;;;6213783;22;43854;-63
2022/08/08 02:22:32;;;;;;;1.45;1.10;;;21.80;63.20;;;;;;6213438;22;43317;-63
2022/08/08 02:25:23;;;;;;;1.27;1.17;;;21.80;63.20;;;;;;6213439;22;43777;-63
2022/08/08 02:28:44;;;;;;;0.93;0.93;;;21.80;63.20;;;;;;6185502;22;43937;-63
2022/08/08 02:31:39;;;;;;;1.00;0.85;;;21.80;63.20;;;;;;6185333;22;43337;-63
2022/08/08 02:34:53;;;;;;;1.25;1.15;;;21.80;63.30;;;;;;6185913;22;43348;-63
2022/08/08 02:38:31;;;;;;;1.15;1.05;;;21.80;63.20;;;;;;6186646;22;43970;-63
2022/08/08 02:41:17;;;;;;;1.50;1.30;;;21.80;63.30;;;;;;6185601;22;43647;-63
2022/08/08 02:44:24;;;;;;;1.02;1.02;;;21.80;63.30;;;;;;6211622;22;43313;-63
2022/08/08 02:47:31;;;;;;;1.38;1.08;;;21.80;63.30;;;;;;6186354;22;43268;-63
2022/08/08 02:50:21;;;;;;;1.20;1.10;;;21.80;63.30;;;;;;6185678;22;44752;-63
2022/08/08 02:53:13;;;;;;;1.10;1.10;;;21.80;63.30;;;;;;6186576;22;43904;-63
2022/08/08 02:56:18;;;;;;;1.48;1.20;;;21.80;63.30;;;;;;6211285;22;43221;-63
2022/08/08 02:59:23;;;;;;;1.42;1.17;;;21.80;63.30;;;;;;6186647;22;43748;-63
2022/08/08 03:02:35;;;;;;;1.05;1.02;;;21.80;63.30;;;;;;6185301;22;45034;-63
2022/08/08 03:05:38;;;;;;;1.23;1.13;;;21.70;63.30;;;;;;6186227;22;43641;-63
2022/08/08 03:08:48;;;;;;;0.98;0.98;;;21.70;63.30;;;;;;6186173;22;43276;-63
2022/08/08 03:11:46;;;;;;;1.20;1.10;;;21.70;63.30;;;;;;6186293;22;43353;-63
2022/08/08 03:14:43;;;;;;;1.45;1.02;;;21.70;63.30;;;;;;6186137;22;44206;-63
2022/08/08 03:17:50;;;;;;;1.08;0.90;;;21.70;63.30;;;;;;6210697;22;43266;-63
2022/08/08 03:20:46;;;;;;;1.25;1.00;;;21.70;63.30;;;;;;6165620;22;43368;-63
2022/08/08 03:23:29;;;;;;;1.08;1.00;;;21.70;63.30;;;;;;6186144;22;43316;-63
2022/08/08 03:26:28;;;;;;;1.10;1.10;;;21.70;63.40;;;;;;6185950;22;43983;-63
2022/08/08 03:29:07;;;;;;;1.70;1.08;;;21.70;63.30;;;;;;6213079;22;43714;-63
2022/08/08 03:34:38;;;;;;;0.90;0.90;;;21.70;63.30;;;;;;6213121;22;43201;-63
2022/08/08 03:37:14;;;;;;;1.20;1.20;;;21.70;63.40;;;;;;6185514;22;44928;-63
2022/08/08 03:40:04;;;;;;;1.98;1.20;;;21.70;63.40;;;;;;6165519;22;43305;-63
2022/08/08 03:42:37;;;;;;;1.15;1.00;;;21.70;63.40;;;;;;6186477;22;43727;-64
2022/08/08 03:45:18;;;;;;;1.42;1.10;;;21.70;63.30;;;;;;6185895;22;43312;-63
2022/08/08 03:48:07;;;;;;;1.02;1.00;;;21.70;63.30;;;;;;6185842;22;44009;-63
2022/08/08 03:50:49;;;;;;;1.15;1.00;;;21.70;63.30;;;;;;6186029;22;43280;-63
2022/08/08 03:53:20;;;;;;;1.10;1.10;;;21.60;63.30;;;;;;6185886;22;43345;-63
2022/08/08 03:56:08;;;;;;;1.35;0.90;;;21.70;63.40;;;;;;6213139;22;43386;-63
2022/08/08 03:58:55;;;;;;;1.17;1.08;;;21.70;63.40;;;;;;6186092;22;43929;-63
2022/08/08 04:01:36;;;;;;;1.52;1.40;;;21.60;63.30;;;;;;6185947;22;43234;-63
2022/08/08 04:04:23;;;;;;;1.10;1.00;;;21.60;63.40;;;;;;6186254;22;43214;-63
2022/08/08 04:06:58;;;;;;;1.70;1.23;;;21.60;63.40;;;;;;6186016;22;43222;-63
2022/08/08 04:09:36;;;;;;;1.40;1.30;;;21.60;63.30;;;;;;6185923;22;44725;-63
2022/08/08 04:12:23;;;;;;;0.82;0.82;;;21.60;63.40;;;;;;6185125;22;43337;-63
2022/08/08 04:14:54;;;;;;;1.27;1.17;;;21.60;63.40;;;;;;6210719;22;43215;-63
2022/08/08 04:17:23;;;;;;;1.15;1.05;;;21.60;63.40;;;;;;6185506;22;43426;-63
2022/08/08 04:20:10;;;;;;;1.00;1.00;;;21.60;63.40;;;;;;6210817;22;44690;-63
2022/08/08 04:22:38;;;;;;;1.38;1.27;;;21.60;63.40;;;;;;6184542;22;43819;-63
2022/08/08 04:25:08;;;;;;;2.05;1.40;;;21.60;63.40;;;;;;6160754;22;43246;-63
2022/08/08 04:27:42;;;;;;;1.20;1.10;;;21.60;63.40;;;;;;6185723;22;43325;-63
2022/08/08 04:30:30;;;;;;;1.00;0.90;;;21.60;63.40;;;;;;6185447;22;44936;-63
2022/08/08 04:33:10;;;;;;;1.05;1.02;;;21.60;63.40;;;;;;6186036;22;43880;-63
2022/08/08 04:35:42;;;;;;;0.90;0.90;;;21.60;63.40;;;;;;6212652;22;43224;-64
2022/08/08 04:38:20;;;;;;;1.30;1.20;;;21.60;63.40;;;;;;6185895;22;43250;-64
2022/08/08 04:40:52;;;;;;;1.90;0.98;;;21.60;63.50;;;;;;6185195;22;44710;-64
2022/08/08 04:43:23;;;;;;;1.30;1.20;;;21.60;63.40;;;;;;6212662;22;43269;-64
2022/08/08 04:46:13;;;;;;;1.20;1.10;;;21.60;63.50;;;;;;6185673;22;43354;-63
2022/08/08 04:48:42;;;;;;;1.20;1.20;;;21.60;63.50;;;;;;6185216;22;43354;-64
2022/08/08 04:51:10;;;;;;;0.98;0.98;;;21.60;63.40;;;;;;6212349;22;44853;-63
2022/08/08 04:53:50;;;;;;;1.08;1.08;;;21.60;63.50;;;;;;6185846;22;43916;-65
2022/08/08 04:56:38;;;;;;;1.35;1.25;;;21.60;63.50;;;;;;6184968;22;43294;-64
2022/08/08 04:59:06;;;;;;;1.38;1.27;;;21.60;63.40;;;;;;6185989;22;43451;-64
2022/08/08 05:01:34;;;;;;;1.00;1.00;;;21.60;63.40;;;;;;6211793;22;44688;-64
2022/08/08 05:04:17;;;;;;;0.88;0.88;;;21.60;63.50;;;;;;6185522;22;43219;-64
2022/08/08 05:06:47;;;;;;;1.85;1.20;;;21.60;63.50;;;;;;6186031;22;43309;-64
2022/08/08 05:09:21;;;;;;;1.40;1.10;;;21.60;63.50;;;;;;6185895;22;43400;-64
2022/08/08 05:11:50;;;;;;;1.13;1.00;;;21.60;63.50;;;;;;6185725;22;43976;-64
2022/08/08 05:14:25;;;;;;;1.02;1.02;;;21.50;63.40;;;;;;6185933;22;43901;-64
2022/08/08 05:16:57;;;;;;;0.93;0.93;;;21.60;63.50;;;;;;6185909;22;43315;-64
2022/08/08 05:19:34;;;;;;;0.95;0.93;;;21.50;63.40;;;;;;6185690;22;43320;-64
2022/08/08 05:22:29;;;;;;;1.23;1.13;;;21.50;63.50;;;;;;6185356;22;44025;-64
2022/08/08 05:24:59;;;;;;;1.00;1.00;;;21.50;63.50;;;;;;6185881;22;43649;-64
2022/08/08 05:27:27;;;;;;;0.95;0.95;;;21.50;63.50;;;;;;6185253;22;43287;-64
2022/08/08 05:30:12;;;;;;;1.30;1.20;;;21.50;63.50;;;;;;6145676;23;43368;-64
2022/08/08 05:32:49;;;;;;;0.90;0.90;;;21.50;63.50;;;;;;6150199;23;43871;-64
2022/08/08 05:35:22;;;;;;;1.00;1.00;;;21.50;63.50;;;;;;6150426;23;43947;-64
2022/08/08 05:38:01;;;;;;;1.10;1.10;;;21.50;63.50;;;;;;6150570;23;43233;-64
2022/08/08 05:40:49;;;;;;;1.27;1.17;;;21.50;63.50;;;;;;6150649;23;43256;-64
2022/08/08 05:43:29;;;;;;;0.95;0.90;;;21.50;63.50;;;;;;6176431;23;43853;-64
2022/08/08 05:46:19;;;;;;;1.10;1.00;;;21.50;63.50;;;;;;6150402;23;43613;-64
2022/08/08 05:48:53;;;;;;;1.20;1.10;;;21.50;63.50;;;;;;6175145;23;43222;-64
2022/08/08 05:51:24;;;;;;;0.90;0.90;;;21.50;63.50;;;;;;6151745;23;43316;-64
2022/08/08 05:53:56;;;;;;;0.98;0.98;;;21.50;63.50;;;;;;6151239;23;44466;-65
2022/08/08 05:56:45;;;;;;;0.75;0.75;;;21.50;63.50;;;;;;6150923;23;43883;-64
2022/08/08 05:59:21;;;;;;;1.00;1.00;;;21.50;64.20;;;;;;6150389;23;43245;-63
2022/08/08 06:05:14;;;;;;;1.17;1.17;;;21.60;63.50;;;;;;6150828;23;44897;-64
2022/08/08 06:08:03;;;;;;;0.95;0.95;;;21.50;63.50;;;;;;6150576;23;44106;-65
2022/08/08 06:10:39;;;;;;;1.05;1.00;;;21.60;63.50;;;;;;6151794;23;43217;-64
2022/08/08 06:13:09;;;;;;;0.98;0.98;;;21.50;63.60;;;;;;6152799;23;43226;-64
2022/08/08 06:15:41;;;;;;;1.58;1.23;;;21.50;63.60;;;;;;6151164;23;44939;-64
2022/08/08 06:18:40;;;;;;;1.30;1.20;;;21.50;63.60;;;;;;6152925;23;43903;-64
2022/08/08 06:21:10;;;;;;;1.15;1.15;;;21.50;63.60;;;;;;6176050;23;43322;-64
2022/08/08 06:24:00;;;;;;;1.00;1.00;;;21.50;63.70;;;;;;6152197;23;43452;-64
2022/08/08 06:26:41;;;;;;;1.40;1.23;;;21.50;63.70;;;;;;6150521;23;43837;-64
2022/08/08 06:29:33;;;;;;;1.10;1.00;;;21.50;63.70;;;;;;6151220;23;43919;-63
2022/08/08 06:32:28;;;;;;;1.38;1.23;;;21.50;63.70;;;;;;6150993;23;43305;-64
2022/08/08 06:35:04;;;;;;;1.30;1.20;;;21.50;63.70;;;;;;6151330;23;43218;-63
2022/08/08 06:38:04;;;;;;;1.27;1.17;;;21.50;63.70;;;;;;6151207;23;44745;-63
2022/08/08 06:40:43;;;;;;;0.90;0.90;;;21.50;63.70;;;;;;6176035;23;43648;-63
2022/08/08 06:43:21;;;;;;;1.25;1.15;;;21.50;63.70;;;;;;6151578;23;43210;-63
2022/08/08 06:46:11;;;;;;;;;;;21.50;63.70;;;;;;6152094;23;43399;-63
2022/08/08 06:48:42;;;;;;;1.05;1.00;;;21.50;63.80;;;;;;6150943;23;43775;-63
2022/08/08 06:51:14;;;;;;;1.10;1.10;;;21.50;63.80;;;;;;6151408;23;43967;-63
2022/08/08 06:53:43;;;;;;;1.20;1.10;;;21.40;63.80;;;;;;6176936;23;43514;-63
2022/08/08 06:56:24;;;;;;;0.98;0.85;;;21.50;63.80;;;;;;6151409;23;43293;-62
2022/08/08 06:58:53;;;;;;;0.93;0.93;;;21.50;63.70;;;;;;6151664;23;44270;-63
2022/08/08 07:01:24;;;;;;;1.00;1.00;;;21.50;63.70;;;;;;6150906;23;43895;-63
2022/08/08 07:04:54;;;;;;;1.20;1.10;;;21.50;63.70;;;;;;6151254;23;43291;-63
2022/08/08 07:08:08;;;;;;;1.27;1.25;;;21.50;63.70;;;;;;6124928;23;43398;-63
2022/08/08 07:10:44;;;;;;;1.23;1.13;;;21.50;63.70;;;;;;6065856;23;44886;-63
2022/08/08 07:13:17;;;;;;;0.90;0.90;;;21.50;63.70;;;;;;6141239;23;43964;-63
2022/08/08 07:15:50;;;;;;;0.90;0.85;;;21.50;63.70;;;;;;6176234;23;43250;-63
2022/08/08 07:19:13;;;;;;;1.48;1.20;;;21.50;63.70;;;;;;6151229;23;43392;-63
2022/08/08 07:21:56;;;;;;;1.50;1.10;;;21.50;63.70;;;;;;6143491;23;44900;-63
2022/08/08 07:24:43;;;;;;;0.90;0.90;;;21.50;63.70;;;;;;6151100;23;43909;-63
2022/08/08 07:27:15;;;;;;;1.63;1.10;;;21.50;63.80;;;;;;6175758;23;43246;-63
2022/08/08 07:29:47;;;;;;;1.40;1.30;;;21.50;63.80;;;;;;6150060;23;43339;-63
2022/08/08 07:32:34;;;;;;;2.17;1.40;;;21.50;64.00;;;;;;6150337;23;43999;-63
2022/08/08 07:35:04;;;;;;;1.88;1.20;;;21.50;64.20;;;;;;6176380;23;43875;-63
2022/08/08 07:37:39;;;;;;;1.30;1.20;;;21.60;64.20;;;;;;6150740;23;43183;-64
2022/08/08 07:40:38;;;;;;;2.22;1.40;;;21.60;64.20;;;;;;6151282;23;43328;-63
2022/08/08 07:43:11;;;;;;;1.98;1.52;;;21.50;64.40;;;;;;6151040;23;43743;-64
2022/08/08 07:45:44;;;;;;;1.40;1.25;;;21.50;64.20;;;;;;6151156;23;44002;-62
2022/08/08 07:48:34;;;;;;;1.38;1.25;;;21.60;64.20;;;;;;6151075;23;43255;-63
2022/08/08 07:51:03;;;;;;;1.25;1.15;;;21.60;64.10;;;;;;6151207;23;43315;-64
2022/08/08 07:54:00;;;;;;;1.30;1.20;;;21.60;64.20;;;;;;6150923;23;43754;-64
2022/08/08 07:56:48;;;;;;;3.17;1.40;;;21.60;64.20;;;;;;6150959;23;43878;-64
2022/08/08 07:59:19;;;;;;;1.58;1.48;;;21.60;64.20;;;;;;6175205;23;43423;-63
2022/08/08 08:01:56;;;;;;;1.25;1.13;;;21.60;64.10;;;;;;6147813;23;43345;-64
2022/08/08 08:04:47;;;;;;;2.25;1.20;;;21.60;64.10;;;;;;6149536;23;44989;-64
2022/08/08 08:07:21;;;;;;;1.40;1.30;;;21.60;64.00;;;;;;6150508;23;44023;-64
2022/08/08 08:10:04;;;;;;;1.95;1.20;;;21.60;64.10;;;;;;6151247;23;43400;-64
2022/08/08 08:12:34;;;;;;;1.55;1.25;;;21.60;64.10;;;;;;6150740;23;43360;-64
2022/08/08 08:15:13;;;;;;;1.20;1.10;;;21.60;64.10;;;;;;6150565;23;44633;-63
2022/08/08 08:17:44;;;;;;;1.65;1.30;;;21.60;64.10;;;;;;6151089;23;43684;-64
2022/08/08 08:20:22;;;;;;;1.20;1.10;;;21.60;64.10;;;;;;6150080;23;43264;-64
2022/08/08 08:22:58;;;;;;;1.13;1.02;;;21.60;64.00;;;;;;6176633;23;43213;-64
2022/08/08 08:25:26;;;;;;;1.25;1.13;;;21.60;64.00;;;;;;6150695;23;43829;-65
2022/08/08 08:28:14;;;;;;;1.88;1.20;;;21.60;64.00;;;;;;6150194;23;43938;-64
2022/08/08 08:30:54;;;;;;;2.50;1.55;;;21.60;64.70;;;;;;6151346;23;43273;-63
2022/08/08 08:33:25;;;;;;;3.10;1.00;;;21.60;64.00;;;;;;6150643;23;43324;-64
2022/08/08 08:35:52;;;;;;;1.02;0.90;;;21.60;64.10;;;;;;6150990;23;44847;-63
2022/08/08 08:38:42;;;;;;;2.55;1.20;;;21.70;64.10;;;;;;6150733;23;43735;-63
2022/08/08 08:41:20;;;;;;;2.67;1.23;;;21.70;64.10;;;;;;6128123;23;43219;-63
2022/08/08 08:43:53;;;;;;;1.10;1.00;;;21.70;64.10;;;;;;6151210;23;43262;-63
2022/08/08 08:46:41;;;;;;;1.65;1.20;;;21.70;64.10;;;;;;6150379;23;44729;-63
2022/08/08 08:49:19;;;;;;;1.83;1.17;;;21.70;64.10;;;;;;6175589;23;43930;-63
2022/08/08 08:51:52;;;;;;;0.98;0.90;;;21.70;64.00;;;;;;6150948;23;43414;-63
2022/08/08 08:54:24;;;;;;;1.35;1.20;;;21.70;64.00;;;;;;6151952;23;43455;-63
2022/08/08 08:56:54;;;;;;;0.80;0.80;;;21.70;64.00;;;;;;6151179;23;44674;-63
2022/08/08 08:59:27;;;;;;;1.33;1.13;;;21.70;64.10;;;;;;6176097;23;43630;-63
2022/08/08 09:02:23;;;;;;;1.13;1.00;;;21.70;64.10;;;;;;6174953;23;43261;-63
2022/08/08 09:05:02;;;;;;;1.50;1.02;;;21.70;64.00;;;;;;6151421;23;43366;-63
2022/08/08 09:07:34;;;;;;;3.15;1.10;;;21.70;64.10;;;;;;6150594;23;43765;-63
2022/08/08 09:10:21;;;;;;;1.42;1.10;;;21.70;64.10;;;;;;6175365;23;43892;-63
2022/08/08 09:12:55;;;;;;;1.83;1.08;;;21.80;64.10;;;;;;6152708;23;43305;-63
2022/08/08 09:15:24;;;;;;;1.50;1.10;;;21.80;64.20;;;;;;6175428;23;43407;-63
2022/08/08 09:18:11;;;;;;;1.50;0.98;;;21.80;64.10;;;;;;6150396;23;43741;-63
2022/08/08 09:20:43;;;;;;;1.30;1.00;;;21.80;64.20;;;;;;6152149;23;43788;-63
2022/08/08 09:23:31;;;;;;;1.40;1.10;;;21.80;64.20;;;;;;6174983;23;43339;-63
2022/08/08 09:26:40;;;;;;;1.13;0.90;;;21.80;64.20;;;;;;6128307;23;43216;-63
2022/08/08 09:29:23;;;;;;;0.95;0.90;;;21.80;64.20;;;;;;6173491;22;44381;-63
2022/08/08 09:32:06;;;;;;;1.65;1.13;;;21.80;64.10;;;;;;6175753;23;43899;-63
2022/08/08 09:34:49;;;;;;;1.73;1.20;;;21.80;64.30;;;;;;6150643;23;43848;-63
2022/08/08 09:37:26;;;;;;;1.67;1.02;;;21.80;64.20;;;;;;6149729;23;43294;-63
2022/08/08 09:40:20;;;;;;;1.58;1.20;;;21.80;64.20;;;;;;6175170;23;43959;-63
2022/08/08 09:42:54;;;;;;;1.48;1.20;;;21.80;64.20;;;;;;6150990;23;43407;-63
2022/08/08 09:45:51;;;;;;;1.75;1.05;;;21.80;64.20;;;;;;6149706;23;43268;-64
2022/08/08 09:48:30;;;;;;;1.05;0.95;;;21.80;64.20;;;;;;6149769;23;43703;-64
2022/08/08 09:51:03;;;;;;;1.88;0.93;;;21.90;64.20;;;;;;6149545;23;44036;-64
2022/08/08 09:53:56;;;;;;;1.02;0.90;;;21.90;64.30;;;;;;6150848;23;43913;-64
2022/08/08 09:56:45;;;;;;;1.48;1.08;;;21.90;64.40;;;;;;6151230;23;43249;-64
2022/08/08 09:59:28;;;;;;;1.77;1.15;;;21.90;64.40;;;;;;6151193;23;43348;-64
2022/08/08 10:02:21;;;;;;;;;;;21.90;64.40;;;;;;6151244;23;44720;-64
2022/08/08 10:04:51;;;;;;;1.10;1.00;;;21.90;64.20;;;;;;6150761;23;43445;-64
2022/08/08 10:07:19;;;;;;;2.13;0.90;;;22.00;64.40;;;;;;6150970;23;43345;-64
2022/08/08 10:09:51;;;;;;;3.70;1.05;;;22.00;64.40;;;;;;6150973;23;43339;-64
2022/08/08 10:12:36;;;;;;;1.33;0.82;;;22.00;64.30;;;;;;6149899;23;43992;-64
2022/08/08 10:15:26;;;;;;;1.73;1.23;;;22.00;64.30;;;;;;6151916;23;43845;-64
2022/08/08 10:17:55;;;;;;;0.75;0.75;;;22.00;64.20;;;;;;6152882;23;43252;-64
2022/08/08 10:20:46;;;;;;;1.88;1.00;;;22.00;64.20;;;;;;6152800;23;43290;-65
2022/08/08 10:24:01;;;;;;;1.20;1.10;;;22.10;64.20;;;;;;6152551;23;43842;-64
2022/08/08 10:26:34;;;;;;;1.77;0.98;;;22.10;64.00;;;;;;6151769;23;43225;-64
2022/08/08 10:29:47;;;;;;;1.05;0.90;;;22.10;64.00;;;;;;6194057;22;43315;-64
2022/08/08 10:32:39;;;;;;;4.07;1.42;;;22.10;64.00;;;;;;6211901;22;43288;-64
2022/08/08 10:35:18;;;;;;;;;;;22.10;64.00;;;;;;6213048;22;44873;-64
2022/08/08 10:38:08;;;;;;;1.23;1.13;;;22.10;64.00;;;;;;6212798;22;43298;-64
2022/08/08 10:40:44;;;;;;;1.33;0.90;;;22.10;64.00;;;;;;6211894;22;43267;-64
2022/08/08 10:43:12;;;;;;;1.60;1.00;;;22.10;64.00;;;;;;6213456;22;43380;-64
2022/08/08 10:45:50;;;;;;;1.38;1.08;;;22.20;63.90;;;;;;6213306;22;44807;-64
2022/08/08 10:48:35;;;;;;;0.90;0.90;;;22.20;63.90;;;;;;6212192;22;43264;-64
2022/08/08 10:51:27;;;;;;;1.20;0.70;;;22.20;63.80;;;;;;6213759;22;43271;-63
2022/08/08 10:54:07;;;;;;;1.17;0.90;;;22.20;63.80;;;;;;6212907;22;43410;-64
2022/08/08 10:56:36;;;;;;;1.98;0.80;;;22.20;63.80;;;;;;6186148;22;43920;-63
2022/08/08 10:59:09;;;;;;;1.95;0.95;;;22.20;63.80;;;;;;6213049;22;43676;-63
2022/08/08 11:01:45;;;;;;;1.52;1.08;;;22.20;63.80;;;;;;6212543;22;43257;-63
2022/08/08 11:04:21;;;;;;;0.70;0.70;;;22.20;63.80;;;;;;6213447;22;43366;-63
2022/08/08 11:07:05;;;;;;;0.93;0.93;;;22.20;63.80;;;;;;6213400;22;44635;-64
2022/08/08 11:09:47;;;;;;;0.98;0.90;;;22.30;63.80;;;;;;6212572;22;43751;-63
2022/08/08 11:12:14;;;;;;;1.67;0.95;;;22.30;63.70;;;;;;6213225;22;43276;-63
2022/08/08 11:14:55;;;;;;;0.93;0.90;;;22.30;63.70;;;;;;6212723;22;43418;-63
2022/08/08 11:17:29;;;;;;;1.40;0.80;;;22.30;63.70;;;;;;6212980;22;43978;-63
2022/08/08 11:20:25;;;;;;;1.17;1.00;;;22.30;63.70;;;;;;6212987;22;43664;-63
2022/08/08 11:22:56;;;;;;;0.77;0.75;;;22.30;63.60;;;;;;6212774;22;43226;-63
2022/08/08 11:25:27;;;;;;;1.20;1.10;;;22.40;63.70;;;;;;6213443;22;43383;-63
2022/08/08 11:28:21;;;;;;;1.55;0.90;;;22.40;63.70;;;;;;6211784;22;43744;-63
2022/08/08 11:30:55;;;;;;;1.23;1.10;;;22.40;63.70;;;;;;6212822;22;43249;-63
2022/08/08 11:33:26;;;;;;;1.40;1.00;;;22.40;63.70;;;;;;6213203;22;43225;-63
2022/08/08 11:36:14;;;;;;;1.60;1.02;;;22.40;63.50;;;;;;6212487;22;43730;-63
2022/08/08 11:38:44;;;;;;;0.70;0.70;;;22.40;63.60;;;;;;6212832;22;43998;-63
2022/08/08 11:41:27;;;;;;;1.35;0.85;;;22.40;63.50;;;;;;6212986;22;43641;-63
2022/08/08 11:44:00;;;;;;;1.33;1.00;;;22.50;63.60;;;;;;6186012;22;43204;-63
2022/08/08 11:46:29;;;;;;;0.93;0.80;;;22.50;63.60;;;;;;6213002;22;43273;-63
2022/08/08 11:49:06;;;;;;;1.05;0.95;;;22.50;63.60;;;;;;6213525;22;43972;-63
2022/08/08 11:51:36;;;;;;;1.15;0.80;;;22.50;63.60;;;;;;6212262;22;43278;-64
2022/08/08 11:54:31;;;;;;;0.90;0.80;;;22.50;63.60;;;;;;6213033;22;43192;-63
2022/08/08 11:57:32;;;;;;;1.02;0.73;;;22.50;63.50;;;;;;6213250;22;43238;-63
2022/08/08 12:00:06;;;;;;;1.05;0.90;;;22.60;63.50;;;;;;6134177;22;44898;-63
2022/08/08 12:02:56;;;;;;;0.93;0.90;;;22.60;63.60;;;;;;6208114;22;43197;-63
2022/08/08 12:05:39;;;;;;;0.85;0.85;;;22.60;63.40;;;;;;6185495;22;43449;-63
2022/08/08 12:08:07;;;;;;;1.02;0.85;;;22.60;63.40;;;;;;6212164;22;43674;-63
2022/08/08 12:10:48;;;;;;;1.05;0.70;;;22.60;63.30;;;;;;6209532;22;44077;-63
2022/08/08 12:13:24;;;;;;;1.00;0.90;;;22.70;63.40;;;;;;6212131;22;43274;-63
2022/08/08 12:16:15;;;;;;;0.65;0.65;;;22.70;63.30;;;;;;6211439;22;43289;-63
2022/08/08 12:18:51;;;;;;;1.10;0.85;;;22.70;63.20;;;;;;6211814;22;43356;-63
2022/08/08 12:21:25;;;;;;;1.02;0.82;;;22.70;63.20;;;;;;6212520;22;44721;-63
2022/08/08 12:24:16;;;;;;;0.90;0.90;;;22.80;63.30;;;;;;6211917;22;44047;-63
2022/08/08 12:26:48;;;;;;;0.80;0.80;;;22.80;63.30;;;;;;6211488;22;43257;-63
2022/08/08 12:29:26;;;;;;;1.52;1.00;;;22.80;63.20;;;;;;6212395;22;43387;-63
2022/08/08 12:32:12;;;;;;;1.48;1.00;;;22.80;63.20;;;;;;6184291;22;43762;-63
2022/08/08 12:34:58;;;;;;;0.80;0.80;;;22.80;63.10;;;;;;6211536;22;43732;-63
2022/08/08 12:37:44;;;;;;;1.13;0.90;;;22.80;63.20;;;;;;6211697;22;43266;-63
2022/08/08 12:40:38;;;;;;;0.80;0.80;;;22.90;63.30;;;;;;6210409;22;43277;-63
2022/08/08 12:43:33;;;;;;;0.90;0.90;;;22.90;63.20;;;;;;6211293;22;43849;-63
2022/08/08 12:46:21;;;;;;;1.10;0.80;;;22.90;63.40;;;;;;6211219;22;43229;-63
2022/08/08 12:48:54;;;;;;;1.05;0.90;;;22.90;63.30;;;;;;6212490;22;43332;-63
2022/08/08 12:51:43;;;;;;;1.00;0.90;;;22.90;63.40;;;;;;6212826;22;43249;-63
2022/08/08 12:54:36;;;;;;;0.93;0.70;;;22.90;63.40;;;;;;6211680;22;43774;-63
2022/08/08 12:57:23;;;;;;;1.02;0.90;;;23.00;63.30;;;;;;6212430;22;43880;-63
2022/08/08 12:59:52;;;;;;;1.10;0.90;;;23.00;63.30;;;;;;6211944;22;43279;-63
2022/08/08 13:02:39;;;;;;;0.87;0.87;;;23.00;63.30;;;;;;6212683;22;43346;-63
2022/08/08 13:05:21;;;;;;;1.08;0.88;;;23.00;63.40;;;;;;6212507;22;43994;-63
2022/08/08 13:08:20;;;;;;;0.80;0.80;;;23.00;63.40;;;;;;6211890;22;43339;-63
2022/08/08 13:10:55;;;;;;;0.90;0.90;;;23.00;63.30;;;;;;6212708;22;43784;-63
2022/08/08 13:13:32;;;;;;;0.80;0.80;;;23.00;63.30;;;;;;6208837;22;43306;-63
2022/08/08 13:16:20;;;;;;;0.82;0.82;;;23.00;63.40;;;;;;6209719;22;44843;-63
2022/08/08 13:18:56;;;;;;;0.98;0.90;;;23.00;63.40;;;;;;6212411;22;43596;-63
2022/08/08 13:21:42;;;;;;;0.90;0.90;;;23.10;63.40;;;;;;6212050;22;43189;-63
2022/08/08 13:24:30;;;;;;;0.73;0.70;;;23.10;63.70;;;;;;6212210;22;43370;-63
2022/08/08 13:27:13;;;;;;;0.80;0.80;;;23.10;63.40;;;;;;6212302;22;43733;-63
2022/08/08 13:29:56;;;;;;;0.73;0.70;;;23.10;63.40;;;;;;6211193;22;43308;-63
2022/08/08 13:32:34;;;;;;;1.13;1.02;;;23.20;63.40;;;;;;6212452;22;43303;-63
2022/08/08 13:35:04;;;;;;;0.77;0.77;;;23.20;63.40;;;;;;6212188;22;43301;-63
2022/08/08 13:37:59;;;;;;;0.88;0.80;;;23.20;63.40;;;;;;6211938;22;44874;-63
2022/08/08 13:40:34;;;;;;;0.80;0.80;;;23.20;63.40;;;;;;6211752;22;43847;-63
2022/08/08 13:43:07;;;;;;;1.05;0.93;;;23.30;63.40;;;;;;6211534;22;43311;-63
2022/08/08 13:45:35;;;;;;;0.70;0.70;;;23.30;63.60;;;;;;6211118;22;43451;-63
2022/08/08 13:48:12;;;;;;;1.15;1.10;;;23.30;63.40;;;;;;6212453;22;43966;-63
2022/08/08 13:50:48;;;;;;;0.77;0.77;;;23.30;63.30;;;;;;6212443;22;43244;-63
2022/08/08 13:53:28;;;;;;;1.17;1.08;;;23.30;63.30;;;;;;6213742;22;43289;-63
2022/08/08 13:56:07;;;;;;;1.33;0.85;;;23.40;63.40;;;;;;6213307;22;43272;-63
2022/08/08 13:58:50;;;;;;;1.08;0.90;;;23.40;63.30;;;;;;6212851;22;44910;-63
2022/08/08 14:01:30;;;;;;;1.02;1.00;;;23.50;63.30;;;;;;6213041;22;43727;-63
2022/08/08 14:04:21;;;;;;;0.70;0.70;;;23.50;63.30;;;;;;6212354;22;43250;-63
2022/08/08 14:07:02;;;;;;;0.70;0.63;;;23.50;63.30;;;;;;6213715;22;43246;-63
2022/08/08 14:09:43;;;;;;;0.90;0.90;;;23.50;63.10;;;;;;6213163;22;44634;-63
2022/08/08 14:12:33;;;;;;;0.80;0.80;;;23.50;63.10;;;;;;6212865;22;43724;-63
2022/08/08 14:15:02;;;;;;;1.05;0.80;;;23.60;63.30;;;;;;6209188;22;43276;-63
2022/08/08 14:17:32;;;;;;;0.70;0.70;;;23.60;63.20;;;;;;6211574;22;43249;-63
2022/08/08 14:20:52;;;;;;;0.60;0.60;;;23.60;63.20;;;;;;6212207;22;43968;-63
2022/08/08 14:23:24;;;;;;;1.35;1.00;;;23.70;63.20;;;;;;6212422;22;43217;-63
2022/08/08 14:26:25;;;;;;;0.70;0.70;;;23.70;63.10;;;;;;6210732;22;43288;-63